createdAt,value
2023-09-26T00:00:25.013Z,17.00
2023-09-26T00:03:14.185Z,20.50
2023-09-26T00:05:43.741Z,16.60
2023-09-26T00:08:12.412Z,17.40
2023-09-26T00:10:41.183Z,18.30
2023-09-26T00:13:09.916Z,20.70
2023-09-26T00:15:38.456Z,17.10
2023-09-26T00:18:07.899Z,20.00
2023-09-26T00:20:40.131Z,24.00
2023-09-26T00:23:08.491Z,19.70
2023-09-26T00:25:39.250Z,22.40
2023-09-26T00:28:08.686Z,19.10
2023-09-26T00:30:37.255Z,23.60
2023-09-26T00:33:05.910Z,21.60
2023-09-26T00:35:34.618Z,20.90
2023-09-26T00:38:03.400Z,20.80
2023-09-26T00:40:32.313Z,17.70
2023-09-26T00:43:04.084Z,23.90
2023-09-26T00:45:33.879Z,18.50
2023-09-26T00:48:04.607Z,23.00
2023-09-26T00:50:33.281Z,21.40
2023-09-26T00:53:01.885Z,24.70
2023-09-26T00:55:30.442Z,20.10
2023-09-26T00:57:59.433Z,18.50
2023-09-26T01:00:28.417Z,15.50
2023-09-26T01:02:59.468Z,20.00
2023-09-26T01:05:28.578Z,19.90
2023-09-26T01:07:57.135Z,17.50
2023-09-26T01:10:26.304Z,20.60
2023-09-26T01:12:54.669Z,21.40
2023-09-26T01:15:40.614Z,19.80
2023-09-26T01:18:09.619Z,25.30
2023-09-26T01:20:44.670Z,20.60
2023-09-26T01:23:16.425Z,17.20
2023-09-26T01:25:45.803Z,21.60
2023-09-26T01:28:18.436Z,18.20
2023-09-26T01:30:48.350Z,19.90
2023-09-26T01:33:18.418Z,23.20
2023-09-26T01:35:47.919Z,22.10
2023-09-26T01:38:18.554Z,20.40
2023-09-26T01:40:47.748Z,21.00
2023-09-26T01:43:17.390Z,20.50
2023-09-26T01:45:46.157Z,16.90
2023-09-26T01:48:15.226Z,23.10
2023-09-26T01:50:44.738Z,22.50
2023-09-26T01:53:15.479Z,20.80
2023-09-26T01:55:45.073Z,22.10
2023-09-26T01:58:14.098Z,22.60
2023-09-26T02:00:43.851Z,24.50
2023-09-26T02:03:12.623Z,23.90
2023-09-26T02:05:42.011Z,23.80
2023-09-26T02:08:10.780Z,22.00
2023-09-26T02:10:39.455Z,24.70
2023-09-26T02:13:08.139Z,24.30
2023-09-26T02:15:38.050Z,26.10
2023-09-26T02:18:07.233Z,26.50
2023-09-26T02:20:35.937Z,20.20
2023-09-26T02:23:05.514Z,19.60
2023-09-26T02:25:33.961Z,23.00
2023-09-26T02:28:03.066Z,19.80
2023-09-26T02:30:31.714Z,23.10
2023-09-26T02:33:00.334Z,26.40
2023-09-26T02:35:29.143Z,37.90
2023-09-26T02:37:58.330Z,24.30
2023-09-26T02:40:27.362Z,27.00
2023-09-26T02:42:55.923Z,25.40
2023-09-26T02:45:24.358Z,24.60
2023-09-26T02:47:52.739Z,23.80
2023-09-26T02:50:24.033Z,26.70
2023-09-26T02:52:53.878Z,35.70
2023-09-26T02:55:22.698Z,27.70
2023-09-26T02:57:51.485Z,29.70
2023-09-26T03:00:20.802Z,30.00
2023-09-26T03:02:49.767Z,30.50
2023-09-26T03:05:19.683Z,29.50
2023-09-26T03:07:51.220Z,28.40
2023-09-26T03:10:20.285Z,24.80
2023-09-26T03:12:50.260Z,28.90
2023-09-26T03:15:19.336Z,28.80
2023-09-26T03:17:49.140Z,25.70
2023-09-26T03:20:18.009Z,34.90
2023-09-26T03:22:46.843Z,25.10
2023-09-26T03:25:15.413Z,28.80
2023-09-26T03:31:19.633Z,29.30
2023-09-26T03:33:51.739Z,28.80
2023-09-26T03:36:20.469Z,38.10
2023-09-26T03:38:50.483Z,40.50
2023-09-26T03:41:18.785Z,31.70
2023-09-26T03:43:48.010Z,33.90
2023-09-26T03:46:16.497Z,36.60
2023-09-26T03:48:45.128Z,28.70
2023-09-26T03:51:15.020Z,30.60
2023-09-26T03:53:44.680Z,26.80
2023-09-26T03:56:13.172Z,29.60
2023-09-26T03:58:41.716Z,31.40
2023-09-26T04:01:14.506Z,38.00
2023-09-26T04:03:47.946Z,36.50
2023-09-26T04:06:17.565Z,33.00
2023-09-26T04:08:47.216Z,28.00
2023-09-26T04:11:19.508Z,32.60
2023-09-26T04:13:47.858Z,34.00
2023-09-26T04:16:16.473Z,39.30
2023-09-26T04:18:48.346Z,32.30
2023-09-26T04:21:17.656Z,33.30
2023-09-26T04:23:46.183Z,29.70
2023-09-26T04:26:16.814Z,32.50
2023-09-26T04:28:50.104Z,36.50
2023-09-26T04:31:20.118Z,35.60
2023-09-26T04:33:49.929Z,39.20
2023-09-26T04:36:18.833Z,44.40
2023-09-26T04:38:48.005Z,40.80
2023-09-26T04:41:17.566Z,31.90
2023-09-26T04:43:45.834Z,37.40
2023-09-26T04:46:15.435Z,31.70
2023-09-26T04:48:45.643Z,45.70
2023-09-26T04:51:17.291Z,38.10
2023-09-26T04:53:45.668Z,35.70
2023-09-26T04:56:14.178Z,40.60
2023-09-26T04:58:42.651Z,34.80
2023-09-26T05:01:16.325Z,39.40
2023-09-26T05:03:46.368Z,49.60
2023-09-26T05:06:15.073Z,49.80
2023-09-26T05:08:43.689Z,43.80
2023-09-26T05:11:16.485Z,39.20
2023-09-26T05:13:45.299Z,31.90
2023-09-26T05:16:16.121Z,30.50
2023-09-26T05:18:44.448Z,28.40
2023-09-26T05:21:13.337Z,28.00
2023-09-26T05:23:41.776Z,27.80
2023-09-26T05:26:12.744Z,30.70
2023-09-26T05:28:42.327Z,36.90
2023-09-26T05:31:10.890Z,32.20
2023-09-26T05:33:39.494Z,24.90
2023-09-26T05:36:08.345Z,28.00
2023-09-26T05:38:37.071Z,30.80
2023-09-26T05:41:06.927Z,34.80
2023-09-26T05:43:35.521Z,34.40
2023-09-26T05:46:05.867Z,38.70
2023-09-26T05:48:36.018Z,34.10
2023-09-26T05:51:04.946Z,32.70
2023-09-26T05:53:33.589Z,38.40
2023-09-26T05:56:02.825Z,38.10
2023-09-26T05:58:31.405Z,34.10
2023-09-26T06:01:07.808Z,37.90
2023-09-26T06:06:05.896Z,35.50
2023-09-26T06:08:35.752Z,36.20
2023-09-26T06:11:05.876Z,36.00
2023-09-26T06:13:34.700Z,35.10
2023-09-26T06:16:06.796Z,33.20
2023-09-26T06:18:35.416Z,34.70
2023-09-26T06:21:05.382Z,35.90
2023-09-26T06:23:34.313Z,38.70
2023-09-26T06:26:03.971Z,36.70
2023-09-26T06:28:32.763Z,38.00
2023-09-26T06:31:11.901Z,37.10
2023-09-26T06:33:42.762Z,33.20
2023-09-26T06:36:15.087Z,28.10
2023-09-26T06:38:43.731Z,31.90
2023-09-26T06:41:12.192Z,33.10
2023-09-26T06:43:40.592Z,34.60
2023-09-26T06:46:10.225Z,33.50
2023-09-26T06:48:39.866Z,38.00
2023-09-26T06:51:09.689Z,47.20
2023-09-26T06:53:38.778Z,38.30
2023-09-26T06:56:09.549Z,43.80
2023-09-26T06:58:39.394Z,42.30
2023-09-26T07:01:19.201Z,34.70
2023-09-26T07:03:47.718Z,35.60
2023-09-26T07:06:16.889Z,30.50
2023-09-26T07:08:46.070Z,35.70
2023-09-26T07:11:14.694Z,35.40
2023-09-26T07:16:14.367Z,39.70
2023-09-26T07:18:42.808Z,41.40
2023-09-26T07:21:11.242Z,31.90
2023-09-26T07:23:39.556Z,30.20
2023-09-26T07:26:15.707Z,35.80
2023-09-26T07:28:46.859Z,34.30
2023-09-26T07:31:19.116Z,38.80
2023-09-26T07:33:47.883Z,36.40
2023-09-26T07:36:16.889Z,27.30
2023-09-26T07:38:45.760Z,32.00
2023-09-26T07:41:14.028Z,27.40
2023-09-26T07:43:44.250Z,28.70
2023-09-26T07:46:13.530Z,33.20
2023-09-26T07:48:41.972Z,33.60
2023-09-26T07:51:13.876Z,40.40
2023-09-26T07:53:45.161Z,36.20
2023-09-26T07:56:14.730Z,31.80
2023-09-26T07:58:43.281Z,34.90
2023-09-26T08:01:11.924Z,25.60
2023-09-26T08:03:40.597Z,30.50
2023-09-26T08:06:09.335Z,30.80
2023-09-26T08:08:38.112Z,31.20
2023-09-26T08:11:09.933Z,25.30
2023-09-26T08:13:40.810Z,21.40
2023-09-26T08:16:10.929Z,25.60
2023-09-26T08:18:39.617Z,29.10
2023-09-26T08:21:08.516Z,28.50
2023-09-26T08:23:37.290Z,23.10
2023-09-26T08:26:12.205Z,23.80
2023-09-26T08:28:41.323Z,23.00
2023-09-26T08:31:16.160Z,22.00
2023-09-26T08:33:46.145Z,26.10
2023-09-26T08:36:16.911Z,29.70
2023-09-26T08:38:46.519Z,33.00
2023-09-26T08:41:18.267Z,24.90
2023-09-26T08:43:49.431Z,21.60
2023-09-26T08:46:18.992Z,27.30
2023-09-26T08:48:49.269Z,23.70
2023-09-26T08:51:18.002Z,20.20
2023-09-26T08:53:46.865Z,25.40
2023-09-26T08:56:15.269Z,24.40
2023-09-26T08:58:46.199Z,19.70
2023-09-26T09:01:14.849Z,19.50
2023-09-26T09:03:43.219Z,26.60
2023-09-26T09:25:44.871Z,20.10
2023-09-26T09:28:21.573Z,21.20
2023-09-26T09:30:51.791Z,16.50
2023-09-26T09:33:21.282Z,16.30
2023-09-26T09:35:49.545Z,19.60
2023-09-26T09:38:18.849Z,25.20
2023-09-26T09:40:47.871Z,14.20
2023-09-26T09:43:16.562Z,17.00
2023-09-26T09:45:48.564Z,13.40
2023-09-26T09:48:18.213Z,14.60
2023-09-26T09:50:51.417Z,14.30
2023-09-26T09:53:22.228Z,18.10
2023-09-26T09:55:54.247Z,18.70
2023-09-26T09:58:29.456Z,16.60
2023-09-26T10:00:58.224Z,30.70
2023-09-26T10:03:27.717Z,10.00
2023-09-26T10:05:57.316Z,12.90
2023-09-26T10:08:28.201Z,12.50
2023-09-26T10:10:58.180Z,14.10
2023-09-26T10:16:09.062Z,17.30
2023-09-26T10:18:39.391Z,9.80
2023-09-26T10:21:33.424Z,12.80
2023-09-26T10:24:11.015Z,13.80
2023-09-26T10:26:50.294Z,15.70
2023-09-26T10:29:21.452Z,13.50
2023-09-26T10:32:00.443Z,12.40
2023-09-26T10:37:26.637Z,20.20
2023-09-26T10:39:56.119Z,9.10
2023-09-26T10:45:00.135Z,9.70
2023-09-26T10:47:28.638Z,11.10
2023-09-26T10:50:01.231Z,12.50
2023-09-26T10:52:31.835Z,12.00
2023-09-26T10:55:00.359Z,14.90
2023-09-26T10:57:29.468Z,12.50
2023-09-26T10:59:57.889Z,14.10
2023-09-26T11:02:26.653Z,10.50
2023-09-26T11:04:55.909Z,12.20
2023-09-26T11:07:25.205Z,9.80
2023-09-26T11:09:53.917Z,12.30
2023-09-26T11:12:23.571Z,11.00
2023-09-26T11:14:55.568Z,11.10
2023-09-26T11:17:30.979Z,12.70
2023-09-26T11:20:06.785Z,11.50
2023-09-26T11:22:50.025Z,9.60
2023-09-26T11:25:18.741Z,13.40
2023-09-26T11:27:49.458Z,12.30
2023-09-26T11:30:21.021Z,12.50
2023-09-26T11:32:53.996Z,12.90
2023-09-26T11:35:24.089Z,12.00
2023-09-26T11:37:54.257Z,11.80
2023-09-26T11:40:24.168Z,13.10
2023-09-26T11:42:56.922Z,8.10
2023-09-26T11:45:27.727Z,12.00
2023-09-26T11:47:58.383Z,11.90
2023-09-26T11:50:29.600Z,10.70
2023-09-26T11:53:02.389Z,10.90
2023-09-26T11:58:01.044Z,10.60
2023-09-26T12:00:30.122Z,11.60
2023-09-26T12:02:59.681Z,16.70
2023-09-26T12:05:28.751Z,10.10
2023-09-26T12:07:57.376Z,10.80
2023-09-26T12:10:25.805Z,10.80
2023-09-26T12:12:55.932Z,13.00
2023-09-26T12:15:26.758Z,11.10
2023-09-26T12:17:58.049Z,14.90
2023-09-26T12:20:27.440Z,15.60
2023-09-26T12:22:57.853Z,10.90
2023-09-26T12:25:29.355Z,11.40
2023-09-26T12:27:57.973Z,8.90
2023-09-26T12:30:26.838Z,14.30
2023-09-26T12:32:56.292Z,10.10
2023-09-26T12:35:25.766Z,8.60
2023-09-26T12:37:56.173Z,11.00
2023-09-26T12:40:25.342Z,12.60
2023-09-26T12:42:53.948Z,13.20
2023-09-26T12:45:22.294Z,14.20
2023-09-26T12:47:50.693Z,15.10
2023-09-26T12:50:19.161Z,16.10
2023-09-26T12:52:47.604Z,16.50
2023-09-26T12:55:18.236Z,12.40
2023-09-26T12:57:46.725Z,20.70
2023-09-26T13:00:15.905Z,12.50
2023-09-26T13:02:44.799Z,12.00
2023-09-26T13:05:13.807Z,10.80
2023-09-26T13:07:42.107Z,12.30
2023-09-26T13:10:11.688Z,21.60
2023-09-26T13:12:40.106Z,7.70
2023-09-26T13:15:13.061Z,8.40
2023-09-26T13:17:42.154Z,9.40
2023-09-26T13:20:12.694Z,12.50
2023-09-26T13:22:41.742Z,12.20
2023-09-26T13:25:10.458Z,10.20
2023-09-26T13:27:38.777Z,10.10
2023-09-26T13:30:08.166Z,11.40
2023-09-26T13:32:37.037Z,9.90
2023-09-26T13:35:06.326Z,9.40
2023-09-26T13:37:36.657Z,11.40
2023-09-26T13:40:06.345Z,13.00
2023-09-26T13:42:34.940Z,12.10
2023-09-26T13:45:04.542Z,17.20
2023-09-26T13:47:33.779Z,16.20
2023-09-26T13:50:02.250Z,14.00
2023-09-26T13:52:31.748Z,19.70
2023-09-26T13:55:00.628Z,14.70
2023-09-26T13:57:29.030Z,14.60
2023-09-26T13:59:57.774Z,15.90
2023-09-26T14:02:26.921Z,11.20
2023-09-26T14:05:09.389Z,17.10
2023-09-26T14:07:44.072Z,24.20
2023-09-26T14:10:12.429Z,27.10
2023-09-26T14:12:40.773Z,13.10
2023-09-26T14:15:10.018Z,10.70
2023-09-26T14:17:38.364Z,14.00
2023-09-26T14:20:10.602Z,15.20
2023-09-26T14:22:40.361Z,14.70
2023-09-26T14:25:12.961Z,10.80
2023-09-26T14:27:41.507Z,13.80
2023-09-26T14:30:12.003Z,13.00
2023-09-26T14:32:43.919Z,11.90
2023-09-26T14:35:13.074Z,12.70
2023-09-26T14:37:41.456Z,14.20
2023-09-26T14:40:11.489Z,14.40
2023-09-26T14:42:39.807Z,16.80
2023-09-26T14:45:13.339Z,16.80
2023-09-26T14:47:45.352Z,11.40
2023-09-26T14:50:29.415Z,12.40
2023-09-26T14:53:05.872Z,17.70
2023-09-26T14:55:38.090Z,12.10
2023-09-26T14:58:10.982Z,13.70
2023-09-26T15:00:50.180Z,12.10
2023-09-26T15:03:25.088Z,13.90
2023-09-26T15:05:54.832Z,17.50
2023-09-26T15:08:23.992Z,13.50
2023-09-26T15:10:52.537Z,13.00
2023-09-26T15:13:23.214Z,13.20
2023-09-26T15:16:06.083Z,15.30
2023-09-26T15:18:58.753Z,16.50
2023-09-26T15:21:35.076Z,14.10
2023-09-26T15:24:08.417Z,17.20
2023-09-26T15:26:36.686Z,16.00
2023-09-26T15:29:10.883Z,15.00
2023-09-26T15:31:43.513Z,20.70
2023-09-26T15:34:14.501Z,17.50
2023-09-26T15:37:01.882Z,13.20
2023-09-26T15:39:38.917Z,15.70
2023-09-26T15:42:08.204Z,14.60
2023-09-26T15:44:56.318Z,18.30
2023-09-26T15:47:34.907Z,15.80
2023-09-26T15:50:05.954Z,35.60
2023-09-26T15:52:38.821Z,20.60
2023-09-26T15:55:09.082Z,22.10
2023-09-26T15:57:39.611Z,20.90
2023-09-26T16:00:13.912Z,18.10
2023-09-26T16:02:45.193Z,18.70
2023-09-26T16:05:14.123Z,17.80
2023-09-26T16:07:43.223Z,17.50
2023-09-26T16:10:39.204Z,16.00
2023-09-26T16:13:10.555Z,18.10
2023-09-26T16:15:50.373Z,19.30
2023-09-26T16:18:20.385Z,21.30
2023-09-26T16:20:54.192Z,22.30
2023-09-26T16:23:26.968Z,18.90
2023-09-26T16:25:59.410Z,27.20
2023-09-26T16:28:29.256Z,25.90
2023-09-26T16:31:02.937Z,27.90
2023-09-26T16:33:35.812Z,35.00
2023-09-26T16:36:23.460Z,26.90
2023-09-26T16:38:55.427Z,29.40
2023-09-26T16:41:25.057Z,34.60
2023-09-26T16:43:53.611Z,28.50
2023-09-26T16:46:27.257Z,29.40
2023-09-26T16:49:11.809Z,23.50
2023-09-26T16:51:41.795Z,30.60
2023-09-26T16:54:16.297Z,29.30
2023-09-26T16:56:59.695Z,20.20
2023-09-26T16:59:39.116Z,23.60
2023-09-26T17:02:10.319Z,31.50
2023-09-26T17:04:38.816Z,30.80
2023-09-26T17:07:08.299Z,33.20
2023-09-26T17:09:37.128Z,24.90
2023-09-26T17:12:16.796Z,29.20
2023-09-26T17:14:48.625Z,27.80
2023-09-26T17:17:19.377Z,34.50
2023-09-26T17:19:48.813Z,35.70
2023-09-26T17:22:19.008Z,36.10
2023-09-26T17:24:51.105Z,30.10
2023-09-26T17:27:20.397Z,29.80
2023-09-26T17:29:52.689Z,29.10
2023-09-26T17:32:26.154Z,29.10
2023-09-26T17:34:57.356Z,30.30
2023-09-26T17:37:26.942Z,30.70
2023-09-26T17:39:56.338Z,29.50
2023-09-26T17:42:25.367Z,26.10
2023-09-26T17:44:54.153Z,27.90
2023-09-26T17:47:22.632Z,34.50
2023-09-26T17:49:51.526Z,26.70
2023-09-26T17:52:20.765Z,28.30
2023-09-26T17:54:49.366Z,31.70
2023-09-26T17:57:18.295Z,27.70
2023-09-26T17:59:47.260Z,26.30
2023-09-26T18:02:15.800Z,27.00
2023-09-26T18:04:48.802Z,34.30
2023-09-26T18:07:18.419Z,34.50
2023-09-26T18:09:47.041Z,30.10
2023-09-26T18:12:15.965Z,27.40
2023-09-26T18:14:44.471Z,28.00
2023-09-26T18:17:15.372Z,32.00
2023-09-26T18:19:44.733Z,39.00
2023-09-26T18:22:13.596Z,30.90
2023-09-26T18:24:42.722Z,33.40
2023-09-26T18:27:11.892Z,32.50
2023-09-26T18:29:40.678Z,29.60
2023-09-26T18:32:09.389Z,29.40
2023-09-26T18:34:38.621Z,31.60
2023-09-26T18:37:07.769Z,32.70
2023-09-26T18:39:36.352Z,27.00
2023-09-26T18:42:05.062Z,35.00
2023-09-26T18:44:33.921Z,25.50
2023-09-26T18:47:02.458Z,26.50
2023-09-26T18:49:31.134Z,32.00
2023-09-26T18:52:00.196Z,25.50
2023-09-26T18:54:29.271Z,23.50
2023-09-26T18:56:57.965Z,36.70
2023-09-26T18:59:26.134Z,33.90
2023-09-26T19:01:54.597Z,30.30
2023-09-26T19:04:23.451Z,25.60
2023-09-26T19:06:52.333Z,25.60
2023-09-26T19:09:20.876Z,33.40
2023-09-26T19:11:56.542Z,26.40
2023-09-26T19:14:26.173Z,29.70
2023-09-26T19:16:54.759Z,23.10
2023-09-26T19:19:24.141Z,28.40
2023-09-26T19:21:53.754Z,28.50
2023-09-26T19:24:23.564Z,26.50
2023-09-26T19:26:52.477Z,21.50
2023-09-26T19:32:56.621Z,28.40
2023-09-26T19:35:25.199Z,25.20
2023-09-26T19:37:54.000Z,25.10
2023-09-26T19:40:22.475Z,27.60
2023-09-26T19:42:50.906Z,24.90
2023-09-26T19:45:19.629Z,20.90
2023-09-26T19:47:48.929Z,29.10
2023-09-26T19:50:17.904Z,27.70
2023-09-26T19:52:46.638Z,24.30
2023-09-26T19:55:15.573Z,26.10
2023-09-26T19:57:48.557Z,22.90
2023-09-26T20:00:18.190Z,24.30
2023-09-26T20:02:46.529Z,23.10
2023-09-26T20:05:18.268Z,21.80
2023-09-26T20:07:47.038Z,23.90
2023-09-26T20:10:15.667Z,21.80
2023-09-26T20:12:43.966Z,24.40
2023-09-26T20:15:23.091Z,24.50
2023-09-26T20:17:52.684Z,26.40
2023-09-26T20:20:21.538Z,26.90
2023-09-26T20:22:51.592Z,27.40
2023-09-26T20:25:21.103Z,25.90
2023-09-26T20:27:54.566Z,28.50
2023-09-26T20:30:23.518Z,23.00
2023-09-26T20:32:52.083Z,21.70
2023-09-26T20:35:21.024Z,22.70
2023-09-26T20:37:49.456Z,31.10
2023-09-26T20:40:18.078Z,20.90
2023-09-26T20:42:46.630Z,24.30
2023-09-26T20:45:15.885Z,21.70
2023-09-26T20:47:45.696Z,24.90
2023-09-26T20:50:14.231Z,21.00
2023-09-26T20:52:42.967Z,20.80
2023-09-26T20:55:11.884Z,27.10
2023-09-26T20:57:40.505Z,21.60
2023-09-26T21:00:10.878Z,22.20
2023-09-26T21:02:39.378Z,24.90
2023-09-26T21:26:14.244Z,23.10
2023-09-26T21:28:45.830Z,26.10
2023-09-26T21:31:15.911Z,25.10
2023-09-26T21:33:44.406Z,20.40
2023-09-26T21:36:13.778Z,23.30
2023-09-26T21:38:42.154Z,26.80
2023-09-26T21:41:10.800Z,28.00
2023-09-26T21:43:39.969Z,30.10
2023-09-26T21:46:08.221Z,22.30
2023-09-26T21:48:36.728Z,19.60
2023-09-26T21:51:05.686Z,18.00
2023-09-26T21:53:34.145Z,28.60
2023-09-26T21:56:11.957Z,22.40
2023-09-26T21:58:40.204Z,22.60
2023-09-26T22:01:12.575Z,25.40
2023-09-26T22:03:41.562Z,29.30
2023-09-26T22:06:11.447Z,25.80
2023-09-26T22:08:39.794Z,25.60
2023-09-26T22:11:08.754Z,19.50
2023-09-26T22:13:39.940Z,19.40
2023-09-26T22:16:08.397Z,21.20
2023-09-26T22:18:37.220Z,20.00
2023-09-26T22:21:05.784Z,24.00
2023-09-26T22:23:34.275Z,24.30
2023-09-26T22:26:02.987Z,22.10
2023-09-26T22:28:31.327Z,20.80
2023-09-26T22:30:59.608Z,21.90
2023-09-26T22:33:28.711Z,19.30
2023-09-26T22:35:57.386Z,24.10
2023-09-26T22:38:25.997Z,28.60
2023-09-26T22:40:54.679Z,20.00
2023-09-26T22:43:22.874Z,23.30
2023-09-26T22:45:51.474Z,26.40
2023-09-26T22:48:20.195Z,27.40
2023-09-26T22:50:48.855Z,21.90
2023-09-26T22:53:17.223Z,29.30
2023-09-26T22:55:49.470Z,31.70
2023-09-26T22:58:18.364Z,20.90
2023-09-26T23:00:47.442Z,23.00
2023-09-26T23:03:16.438Z,23.50
2023-09-26T23:05:45.440Z,22.20
2023-09-26T23:08:13.978Z,29.00
2023-09-26T23:10:42.274Z,22.00
2023-09-26T23:13:10.691Z,22.60
2023-09-26T23:15:39.157Z,21.00
2023-09-26T23:18:07.953Z,25.90
2023-09-26T23:20:41.307Z,24.40
2023-09-26T23:23:09.780Z,25.10
2023-09-26T23:25:38.629Z,25.10
2023-09-26T23:28:07.477Z,29.10
2023-09-26T23:30:36.291Z,27.60
2023-09-26T23:33:06.131Z,23.00
2023-09-26T23:35:36.362Z,29.10
2023-09-26T23:38:06.765Z,22.20
2023-09-26T23:40:35.154Z,24.70
2023-09-26T23:43:04.811Z,24.10
2023-09-26T23:45:34.244Z,21.80
2023-09-26T23:48:04.041Z,17.90
2023-09-26T23:50:32.501Z,17.00
2023-09-26T23:53:01.677Z,20.40
2023-09-26T23:55:30.194Z,22.00
2023-09-26T23:57:58.503Z,22.00
